Time;durP1;ratioP1;P1;durP2;ratioP2;P2;SDS_P1;SDS_P2;PMS_P1;PMS_P2;Temp;Humidity;BMP_temperature;BMP_pressure;BME280_temperature;BME280_humidity;BME280_pressure;Samples;Min_cycle;Max_cycle;Signal;HPM_P1;HPM_P2
2022/04/30 00:01:30;;;;;;;15.07;4.90;;;6.50;99.90;;;;;;4251532;27;20046;-86
2022/04/30 00:03:32;;;;;;;9.40;4.28;;;7.80;99.90;;;;;;4250770;27;20050;-86
2022/04/30 00:05:34;;;;;;;11.68;4.55;;;7.90;99.90;;;;;;4250919;27;20483;-86
2022/04/30 00:07:34;;;;;;;10.75;4.95;;;7.40;99.90;;;;;;4249991;27;20425;-86
2022/04/30 00:09:38;;;;;;;7.97;4.40;;;6.50;99.90;;;;;;4251095;27;20088;-86
2022/04/30 00:11:39;;;;;;;7.00;4.03;;;6.50;99.90;;;;;;4236392;27;20036;-86
2022/04/30 00:13:40;;;;;;;12.15;4.63;;;6.50;99.90;;;;;;4232876;28;20086;-85
2022/04/30 00:15:40;;;;;;;7.93;3.88;;;7.30;99.90;;;;;;4233420;28;20054;-86
2022/04/30 00:17:41;;;;;;;11.48;5.07;;;7.50;99.90;;;;;;4233215;28;20128;-85
2022/04/30 00:19:43;;;;;;;8.88;4.70;;;7.90;99.90;;;;;;4233626;28;20053;-85
2022/04/30 00:21:44;;;;;;;9.85;4.68;;;7.70;99.90;;;;;;4232747;28;20514;-86
2022/04/30 00:23:44;;;;;;;7.75;4.22;;;7.70;99.90;;;;;;4233370;28;20044;-85
2022/04/30 00:25:49;;;;;;;10.82;4.32;;;7.30;99.90;;;;;;4235377;27;20032;-85
2022/04/30 00:27:51;;;;;;;9.45;4.40;;;7.30;99.90;;;;;;4233606;27;20036;-86
2022/04/30 00:29:53;;;;;;;8.48;4.28;;;6.30;99.90;;;;;;4233831;28;20035;-86
2022/04/30 00:31:55;;;;;;;8.25;3.97;;;6.30;99.90;;;;;;4233667;28;20048;-86
2022/04/30 00:33:56;;;;;;;10.55;4.07;;;6.90;99.90;;;;;;4215375;28;20062;-86
2022/04/30 00:35:56;;;;;;;10.10;4.00;;;6.90;99.90;;;;;;4233759;28;20124;-86
2022/04/30 00:37:58;;;;;;;8.52;4.00;;;6.70;99.90;;;;;;4233703;28;20046;-85
2022/04/30 00:40:00;;;;;;;7.95;3.67;;;7.50;99.90;;;;;;4233611;28;20090;-86
2022/04/30 00:42:02;;;;;;;10.02;4.03;;;7.70;99.90;;;;;;4232861;28;20122;-86
2022/04/30 00:44:03;;;;;;;8.82;4.03;;;6.20;99.90;;;;;;4233158;28;20066;-86
2022/04/30 00:46:04;;;;;;;10.77;4.35;;;6.30;99.90;;;;;;4233348;28;20044;-86
2022/04/30 00:48:07;;;;;;;13.05;4.13;;;7.60;99.90;;;;;;4233714;28;20108;-85
2022/04/30 00:50:12;;;;;;;6.35;3.90;;;6.30;99.90;;;;;;4233908;28;20557;-86
2022/04/30 00:52:15;;;;;;;10.27;3.92;;;6.30;99.90;;;;;;4233189;28;20044;-85
2022/04/30 00:54:20;;;;;;;9.23;4.10;;;7.10;99.90;;;;;;4233369;28;20518;-86
2022/04/30 00:56:29;;;;;;;8.82;3.72;;;6.90;99.90;;;;;;4233440;28;20408;-85
2022/04/30 00:58:32;;;;;;;8.75;3.80;;;6.30;99.90;;;;;;4233717;28;20064;-85
2022/04/30 01:00:34;;;;;;;10.35;3.72;;;7.40;99.90;;;;;;4233501;28;20040;-85
2022/04/30 01:02:36;;;;;;;10.82;4.13;;;7.00;99.90;;;;;;4232720;28;20040;-85
2022/04/30 01:04:37;;;;;;;11.77;3.92;;;7.20;99.90;;;;;;4233491;28;20475;-87
2022/04/30 01:06:43;;;;;;;9.65;3.88;;;6.90;99.90;;;;;;4215134;28;20040;-86
2022/04/30 01:08:45;;;;;;;11.23;3.92;;;6.30;99.90;;;;;;4233623;28;20043;-86
2022/04/30 01:10:46;;;;;;;7.75;3.78;;;6.60;99.90;;;;;;4231574;28;20484;-85
2022/04/30 01:12:47;;;;;;;7.75;3.47;;;6.70;99.90;;;;;;4233168;28;20055;-86
2022/04/30 01:14:51;;;;;;;8.40;3.78;;;6.80;99.90;;;;;;4233613;28;20040;-86
2022/04/30 01:16:52;;;;;;;6.97;3.28;;;6.20;99.90;;;;;;4233433;28;20051;-86
2022/04/30 01:18:53;;;;;;;5.90;3.65;;;6.20;99.90;;;;;;4232829;28;20051;-86
2022/04/30 01:20:59;;;;;;;7.97;3.88;;;6.20;99.90;;;;;;4233318;28;20047;-86
2022/04/30 01:23:02;;;;;;;10.07;3.33;;;7.60;99.90;;;;;;4233065;28;20104;-86
2022/04/30 01:25:04;;;;;;;12.40;3.55;;;6.10;99.90;;;;;;4233075;28;20122;-86
2022/04/30 01:27:05;;;;;;;7.18;3.70;;;6.20;99.90;;;;;;4233637;28;20043;-86
2022/04/30 01:29:07;;;;;;;6.75;3.50;;;6.20;99.90;;;;;;4233358;28;20078;-85
2022/04/30 01:37:22;;;;;;;11.15;3.55;;;7.30;99.90;;;;;;4232606;28;20043;-87
2022/04/30 01:38:17;;;;;;;9.10;4.07;;;6.70;99.90;;;;;;4214738;28;20044;-86
2022/04/30 01:40:17;;;;;;;7.35;3.58;;;6.10;99.90;;;;;;4232633;28;20487;-86
2022/04/30 01:42:19;;;;;;;10.25;3.33;;;6.90;99.90;;;;;;4232554;28;20047;-86
2022/04/30 01:44:20;;;;;;;7.22;3.70;;;6.60;99.90;;;;;;4232624;28;20114;-86
2022/04/30 01:46:21;;;;;;;10.25;3.58;;;6.80;99.90;;;;;;4233137;28;20054;-87
2022/04/30 01:48:22;;;;;;;6.80;3.78;;;7.20;99.90;;;;;;4233517;28;20103;-87
2022/04/30 01:50:23;;;;;;;6.65;3.58;;;7.20;99.90;;;;;;4233668;28;20119;-87
2022/04/30 01:52:24;;;;;;;7.22;3.75;;;6.00;99.90;;;;;;4233362;28;20058;-86
2022/04/30 01:54:25;;;;;;;12.38;3.72;;;6.90;99.90;;;;;;4232606;28;20084;-86
2022/04/30 01:56:25;;;;;;;8.65;3.60;;;6.00;99.90;;;;;;4232092;28;20036;-86
2022/04/30 01:58:26;;;;;;;7.60;3.85;;;6.00;99.90;;;;;;4232446;28;20100;-87
2022/04/30 02:00:27;;;;;;;7.95;3.63;;;6.20;99.90;;;;;;4231343;28;20134;-86
2022/04/30 02:02:34;;;;;;;7.50;3.67;;;5.90;99.90;;;;;;4232699;28;20075;-86
2022/04/30 02:04:35;;;;;;;7.15;3.45;;;5.90;99.90;;;;;;4232976;28;20047;-87
2022/04/30 02:06:38;;;;;;;8.50;3.53;;;6.60;99.90;;;;;;4232821;28;20039;-86
2022/04/30 02:08:40;;;;;;;6.50;3.35;;;6.50;99.90;;;;;;4243124;27;20043;-87
2022/04/30 02:10:42;;;;;;;5.80;3.20;;;7.30;99.90;;;;;;4249466;27;20054;-86
2022/04/30 02:12:45;;;;;;;7.18;3.55;;;6.60;99.90;;;;;;4249285;27;20086;-86
2022/04/30 02:14:52;;;;;;;7.13;3.22;;;7.00;99.90;;;;;;4249025;27;20078;-86
2022/04/30 02:16:52;;;;;;;8.52;4.45;;;6.80;99.90;;;;;;4248999;27;20071;-87
2022/04/30 02:18:55;;;;;;;6.30;2.85;;;6.80;99.90;;;;;;4248644;27;20058;-86
2022/04/30 02:20:56;;;;;;;10.68;3.10;;;7.20;99.90;;;;;;4248781;27;20078;-86
2022/04/30 02:23:01;;;;;;;8.43;4.05;;;6.40;99.90;;;;;;4249584;27;20039;-86
2022/04/30 02:25:03;;;;;;;8.13;3.30;;;6.40;99.90;;;;;;4248781;27;20047;-86
2022/04/30 02:27:04;;;;;;;6.90;3.38;;;5.80;99.90;;;;;;4230866;28;20039;-86
2022/04/30 02:29:07;;;;;;;7.35;3.65;;;5.80;99.90;;;;;;4249080;27;20036;-86
2022/04/30 02:31:27;;;;;;;7.00;3.80;;;6.50;99.90;;;;;;4248831;27;20126;-87
2022/04/30 02:33:28;;;;;;;8.90;4.25;;;5.50;99.90;;;;;;4248458;27;20039;-87
2022/04/30 02:35:32;;;;;;;7.72;3.67;;;6.60;99.90;;;;;;4248238;27;20518;-87
2022/04/30 02:37:32;;;;;;;5.90;3.78;;;6.90;99.90;;;;;;4248384;27;20512;-87
2022/04/30 02:39:33;;;;;;;9.02;3.80;;;6.20;99.90;;;;;;4247929;27;20039;-87
2022/04/30 02:41:35;;;;;;;8.32;3.63;;;7.10;99.90;;;;;;4248225;27;20386;-86
2022/04/30 02:43:37;;;;;;;5.35;3.60;;;6.30;99.90;;;;;;4246380;27;20050;-86
2022/04/30 02:45:41;;;;;;;7.72;3.38;;;4.70;99.90;;;;;;4248458;27;20562;-85
2022/04/30 02:47:45;;;;;;;8.80;3.15;;;5.60;99.90;;;;;;4230307;28;20039;-86
2022/04/30 02:49:46;;;;;;;9.27;3.60;;;5.20;99.90;;;;;;4241196;27;20043;-86
2022/04/30 02:51:47;;;;;;;6.10;3.80;;;7.10;99.90;;;;;;4231148;28;20456;-86
2022/04/30 02:53:47;;;;;;;9.98;5.78;;;6.10;99.90;;;;;;4231756;28;20069;-86
2022/04/30 02:55:48;;;;;;;9.05;4.07;;;5.70;99.90;;;;;;4231270;28;20044;-86
2022/04/30 03:00:11;;;;;;;6.55;3.60;;;4.70;99.90;;;;;;4231503;28;20495;-85
2022/04/30 03:02:12;;;;;;;6.60;3.55;;;5.70;99.90;;;;;;4231852;28;20075;-86
2022/04/30 03:04:13;;;;;;;6.70;3.90;;;5.70;99.90;;;;;;4231230;28;20116;-87
2022/04/30 03:06:15;;;;;;;6.18;3.45;;;5.70;99.90;;;;;;4231477;28;20039;-86
2022/04/30 03:08:21;;;;;;;6.50;3.88;;;6.00;99.90;;;;;;4213469;28;20048;-86
2022/04/30 03:10:23;;;;;;;5.50;3.30;;;5.70;99.90;;;;;;4213093;28;20044;-86
2022/04/30 03:12:24;;;;;;;6.43;3.28;;;5.60;99.90;;;;;;4230898;28;20127;-87
2022/04/30 03:14:25;;;;;;;12.02;3.67;;;5.60;99.90;;;;;;4231256;28;20046;-86
2022/04/30 03:23:10;;;;;;;8.27;3.22;;;5.60;99.90;;;;;;4233092;28;20138;-86
2022/04/30 03:25:11;;;;;;;7.63;3.63;;;5.90;99.90;;;;;;4247569;28;20111;-86
2022/04/30 03:27:12;;;;;;;6.45;4.00;;;5.60;99.90;;;;;;4229737;28;20055;-86
2022/04/30 03:29:18;;;;;;;6.07;3.20;;;5.60;99.90;;;;;;4230031;28;20042;-86
2022/04/30 03:31:20;;;;;;;8.95;3.50;;;5.60;99.90;;;;;;4229891;28;20464;-86
2022/04/30 03:33:20;;;;;;;8.65;2.88;;;5.60;99.90;;;;;;4247550;28;20494;-86
2022/04/30 03:35:21;;;;;;;8.05;2.92;;;5.60;99.90;;;;;;4248254;28;20043;-85
2022/04/30 03:37:23;;;;;;;7.47;3.05;;;6.90;99.90;;;;;;4248326;28;20154;-85
2022/04/30 03:39:24;;;;;;;4.63;2.95;;;6.00;99.90;;;;;;4248470;28;20514;-86
2022/04/30 03:41:25;;;;;;;7.57;3.60;;;5.70;99.90;;;;;;4247997;28;20042;-86
2022/04/30 03:43:26;;;;;;;7.65;3.40;;;5.70;99.90;;;;;;4247185;28;20078;-86
2022/04/30 03:45:27;;;;;;;7.95;3.00;;;5.70;99.90;;;;;;4247164;28;20122;-86
2022/04/30 03:47:28;;;;;;;8.40;3.50;;;5.80;99.90;;;;;;4229537;28;20106;-87
2022/04/30 03:49:29;;;;;;;5.30;3.42;;;6.50;99.90;;;;;;4247985;28;20072;-86
2022/04/30 03:51:29;;;;;;;10.98;3.50;;;5.70;99.90;;;;;;4229581;28;20044;-85
2022/04/30 03:53:30;;;;;;;7.05;3.30;;;5.70;99.90;;;;;;4248189;28;20479;-86
2022/04/30 03:55:31;;;;;;;6.72;3.50;;;5.60;99.90;;;;;;4248334;28;20043;-86
2022/04/30 03:57:32;;;;;;;5.80;3.08;;;6.30;99.90;;;;;;4248733;28;20049;-86
2022/04/30 03:59:33;;;;;;;8.60;3.38;;;6.30;99.90;;;;;;4233682;28;20047;-86
2022/04/30 04:01:35;;;;;;;5.38;2.97;;;6.70;99.90;;;;;;4246734;28;20118;-86
2022/04/30 04:03:36;;;;;;;6.13;3.30;;;5.60;99.90;;;;;;4247811;28;20039;-85
2022/04/30 04:05:38;;;;;;;6.50;3.40;;;5.60;99.90;;;;;;4245628;28;20043;-86
2022/04/30 04:07:39;;;;;;;6.47;3.28;;;6.70;99.90;;;;;;4248014;28;20502;-86
2022/04/30 04:09:40;;;;;;;6.75;3.70;;;5.60;99.90;;;;;;4247945;28;20055;-85
2022/04/30 04:11:40;;;;;;;7.43;3.60;;;5.60;99.90;;;;;;4247502;28;20087;-85
2022/04/30 04:18:22;;;;;;;7.13;2.95;;;5.60;99.90;;;;;;4246994;27;20153;-85
2022/04/30 04:20:25;;;;;;;7.45;3.60;;;6.10;99.90;;;;;;4247350;27;20059;-86
2022/04/30 04:22:25;;;;;;;7.55;3.78;;;5.70;99.90;;;;;;4250997;27;20116;-86
2022/04/30 04:26:46;;;;;;;12.45;4.00;;;6.20;99.90;;;;;;4250633;27;20075;-85
2022/04/30 04:28:47;;;;;;;8.38;3.45;;;5.80;99.90;;;;;;4250529;27;20046;-86
2022/04/30 04:30:48;;;;;;;6.55;3.55;;;6.30;99.90;;;;;;4250971;27;20418;-86
2022/04/30 04:32:49;;;;;;;10.95;4.22;;;6.40;99.90;;;;;;4251030;27;20039;-86
2022/04/30 04:34:50;;;;;;;6.50;3.55;;;5.90;99.90;;;;;;4251075;27;20039;-86
2022/04/30 04:36:51;;;;;;;9.32;4.10;;;6.40;99.90;;;;;;4250737;27;20071;-85
2022/04/30 04:38:51;;;;;;;6.28;3.35;;;6.70;99.90;;;;;;4250929;27;20042;-87
2022/04/30 04:40:52;;;;;;;6.22;3.50;;;6.00;99.90;;;;;;4250453;27;20035;-87
2022/04/30 04:42:54;;;;;;;7.10;3.47;;;6.00;99.90;;;;;;4251026;27;20039;-86
2022/04/30 04:44:54;;;;;;;9.50;3.30;;;6.70;99.90;;;;;;4232592;28;20059;-86
2022/04/30 04:46:55;;;;;;;8.68;3.97;;;6.10;99.90;;;;;;4251120;27;20376;-86
2022/04/30 04:48:56;;;;;;;5.93;3.53;;;6.70;99.90;;;;;;4251568;27;20077;-86
2022/04/30 04:50:57;;;;;;;9.15;3.83;;;6.10;99.90;;;;;;4250087;27;20046;-86
2022/04/30 04:52:57;;;;;;;8.65;3.85;;;6.10;99.90;;;;;;4216265;28;20488;-86
2022/04/30 04:54:58;;;;;;;7.82;4.30;;;6.20;99.90;;;;;;4243608;27;20530;-85
2022/04/30 04:56:59;;;;;;;7.80;4.03;;;7.40;99.90;;;;;;4249723;27;20558;-85
2022/04/30 04:59:00;;;;;;;8.05;4.00;;;6.20;99.90;;;;;;4235155;28;20079;-87
2022/04/30 05:01:00;;;;;;;7.20;3.70;;;7.00;99.90;;;;;;4252579;27;20031;-86
2022/04/30 05:03:01;;;;;;;8.75;3.88;;;6.30;99.90;;;;;;4245161;27;20047;-86
2022/04/30 05:05:02;;;;;;;7.45;3.60;;;6.70;99.90;;;;;;4224347;28;20035;-87
2022/04/30 05:07:03;;;;;;;5.53;2.88;;;6.40;99.90;;;;;;4245430;27;20119;-86
2022/04/30 05:09:04;;;;;;;6.75;4.10;;;6.40;99.90;;;;;;4238736;27;20058;-86
2022/04/30 05:11:05;;;;;;;6.22;4.07;;;6.40;99.90;;;;;;4244058;27;20478;-86
2022/04/30 05:13:05;;;;;;;6.90;3.75;;;6.50;99.90;;;;;;4249014;27;20051;-86
2022/04/30 05:15:07;;;;;;;5.93;3.60;;;7.30;99.90;;;;;;4249098;27;20066;-87
2022/04/30 05:17:08;;;;;;;10.32;3.85;;;6.50;99.90;;;;;;4241172;27;20079;-87
2022/04/30 05:19:10;;;;;;;5.43;3.40;;;6.60;99.90;;;;;;4248542;27;20089;-86
2022/04/30 05:21:12;;;;;;;10.07;4.07;;;6.60;99.90;;;;;;4249877;27;20493;-86
2022/04/30 05:23:13;;;;;;;7.32;3.80;;;;;;;;;;4241057;27;20043;-87
2022/04/30 05:25:14;;;;;;;6.80;3.78;;;;;;;;;;4250058;27;20050;-86
2022/04/30 05:27:15;;;;;;;11.43;4.82;;;;;;;;;;4250350;27;20530;-86
2022/04/30 05:29:17;;;;;;;5.95;3.67;;;;;;;;;;4249591;27;20036;-87
2022/04/30 05:31:18;;;;;;;8.10;3.88;;;;;;;;;;4248003;27;20051;-87
2022/04/30 05:33:19;;;;;;;10.23;4.30;;;;;;;;;;4231534;28;20047;-87
2022/04/30 05:35:20;;;;;;;10.10;3.65;;;6.60;99.90;;;;;;4249089;27;20096;-87
2022/04/30 05:37:21;;;;;;;6.90;4.13;;;;;;;;;;4242839;27;20130;-86
2022/04/30 05:39:23;;;;;;;9.15;4.28;;;;;;;;;;4246589;27;20047;-87
2022/04/30 05:41:24;;;;;;;14.73;4.95;;;7.00;99.90;;;;;;4249873;27;20047;-87
2022/04/30 05:43:24;;;;;;;7.05;4.20;;;7.20;99.90;;;;;;4249680;27;20043;-86
2022/04/30 05:45:26;;;;;;;6.60;4.05;;;8.20;99.90;;;;;;4250088;27;20497;-86
2022/04/30 05:47:27;;;;;;;8.25;4.03;;;7.30;99.90;;;;;;4250078;27;20043;-86
2022/04/30 05:49:28;;;;;;;8.05;4.22;;;7.40;99.90;;;;;;4249597;27;20051;-86
2022/04/30 05:51:30;;;;;;;9.82;4.43;;;7.40;99.90;;;;;;4244155;27;20487;-87
2022/04/30 05:53:30;;;;;;;6.03;3.92;;;7.50;99.90;;;;;;4235102;27;20039;-87
2022/04/30 05:55:31;;;;;;;6.78;3.83;;;7.60;99.90;;;;;;4244544;27;20050;-87
2022/04/30 05:57:32;;;;;;;9.27;3.92;;;8.50;99.90;;;;;;4249421;27;20175;-87
2022/04/30 05:59:38;;;;;;;13.32;4.28;;;7.80;99.90;;;;;;4249346;27;20039;-87
2022/04/30 06:01:40;;;;;;;10.93;4.60;;;7.90;99.90;;;;;;4248161;27;20057;-87
2022/04/30 06:03:41;;;;;;;10.05;4.03;;;;;;;;;;4231008;28;20082;-87
2022/04/30 06:05:42;;;;;;;10.30;4.43;;;;;;;;;;4247033;27;20043;-87
2022/04/30 06:07:44;;;;;;;11.00;4.72;;;;;;;;;;4249673;27;20046;-87
2022/04/30 06:09:45;;;;;;;8.40;4.05;;;;;;;;;;4249206;27;20039;-87
2022/04/30 06:11:47;;;;;;;5.90;4.05;;;;;;;;;;4247060;27;20042;-86
2022/04/30 06:13:48;;;;;;;8.38;4.20;;;;;;;;;;4249014;27;20042;-87
2022/04/30 06:15:49;;;;;;;7.45;4.03;;;;;;;;;;4249342;27;20276;-87
2022/04/30 06:17:50;;;;;;;5.15;3.60;;;8.40;99.90;;;;;;4249377;27;20168;-86
2022/04/30 06:19:51;;;;;;;9.05;4.40;;;;;;;;;;4249308;27;20051;-87
2022/04/30 06:21:53;;;;;;;10.55;4.32;;;;;;;;;;4249357;27;20261;-86
2022/04/30 06:23:55;;;;;;;8.52;4.35;;;;;;;;;;4249130;27;20047;-87
2022/04/30 06:25:56;;;;;;;6.03;4.07;;;;;;;;;;4248897;27;20139;-87
2022/04/30 06:27:59;;;;;;;9.77;4.03;;;;;;;;;;4248834;27;20575;-87
2022/04/30 06:30:01;;;;;;;5.63;3.50;;;;;;;;;;4248447;27;20448;-87
2022/04/30 06:32:03;;;;;;;7.28;4.30;;;;;;;;;;4248511;27;20047;-86
2022/04/30 06:34:04;;;;;;;8.57;3.97;;;;;;;;;;4248748;27;20047;-87
2022/04/30 06:36:05;;;;;;;8.45;3.10;;;;;;;;;;4245045;27;20054;-87
2022/04/30 06:38:07;;;;;;;7.55;3.85;;;;;;;;;;4249201;27;20562;-87
2022/04/30 06:40:09;;;;;;;12.00;3.97;;;;;;;;;;4249792;27;20043;-88
2022/04/30 06:42:10;;;;;;;8.00;3.70;;;;;;;;;;4248559;27;20125;-87
2022/04/30 06:44:11;;;;;;;7.38;4.57;;;;;;;;;;4250384;27;20062;-88
2022/04/30 06:46:12;;;;;;;11.55;4.03;;;;;;;;;;4231771;28;20547;-87
2022/04/30 06:48:13;;;;;;;5.53;3.22;;;;;;;;;;4243419;27;20391;-87
2022/04/30 06:50:14;;;;;;;9.63;3.72;;;;;;;;;;4249230;27;20039;-87
2022/04/30 06:52:15;;;;;;;9.05;3.80;;;9.40;99.90;;;;;;4249126;27;20039;-87
2022/04/30 06:58:56;;;;;;;4.60;3.15;;;10.20;99.90;;;;;;4239685;27;20051;-87
2022/04/30 07:02:57;;;;;;;9.50;3.83;;;10.30;99.90;;;;;;4248057;27;20043;-87
2022/04/30 07:04:59;;;;;;;8.48;3.70;;;10.80;99.90;;;;;;4248287;27;20391;-87
2022/04/30 07:07:00;;;;;;;10.13;4.00;;;11.00;99.90;;;;;;4248346;27;20403;-87
2022/04/30 07:09:03;;;;;;;13.63;4.57;;;10.30;99.90;;;;;;4248161;27;20035;-88
2022/04/30 07:11:05;;;;;;;14.40;4.30;;;10.50;99.90;;;;;;4229818;28;20099;-88
2022/04/30 07:13:05;;;;;;;6.68;3.63;;;10.40;99.90;;;;;;4248151;27;20483;-88
2022/04/30 07:15:06;;;;;;;11.90;3.45;;;10.60;99.90;;;;;;4247887;28;20045;-87
2022/04/30 07:17:09;;;;;;;8.40;3.47;;;10.50;99.90;;;;;;4229767;28;20491;-88
2022/04/30 07:19:10;;;;;;;8.20;4.20;;;10.50;99.90;;;;;;4248728;28;20101;-87
2022/04/30 07:21:11;;;;;;;6.15;3.70;;;10.60;99.90;;;;;;4249711;28;20047;-88
2022/04/30 07:23:11;;;;;;;10.75;4.50;;;10.70;99.90;;;;;;4249910;28;20041;-86
2022/04/30 07:25:12;;;;;;;12.35;4.18;;;10.90;99.90;;;;;;4249090;28;20047;-88
2022/04/30 07:27:13;;;;;;;6.60;3.72;;;10.60;99.90;;;;;;4230090;28;20086;-86
2022/04/30 07:29:17;;;;;;;7.45;3.40;;;10.90;99.90;;;;;;4225122;28;20051;-87
2022/04/30 07:31:19;;;;;;;5.38;2.78;;;10.60;99.90;;;;;;4248779;28;20047;-87
2022/04/30 07:33:20;;;;;;;6.82;3.20;;;10.60;99.90;;;;;;4248656;28;20457;-86
2022/04/30 07:35:21;;;;;;;14.02;4.45;;;;;;;;;;4248171;28;20050;-85
2022/04/30 07:37:22;;;;;;;7.88;4.18;;;;;;;;;;4248355;28;20061;-86
2022/04/30 07:39:23;;;;;;;7.55;3.88;;;;;;;;;;4248642;28;20093;-86
2022/04/30 07:41:24;;;;;;;8.32;3.88;;;10.60;99.90;;;;;;4248361;28;20043;-86
2022/04/30 07:43:25;;;;;;;5.35;3.65;;;10.80;99.90;;;;;;4248359;28;20121;-86
2022/04/30 07:45:25;;;;;;;6.88;3.83;;;10.40;99.90;;;;;;4248565;28;20100;-86
2022/04/30 07:47:26;;;;;;;10.77;4.88;;;10.40;99.90;;;;;;4227489;28;20075;-85
2022/04/30 07:49:28;;;;;;;9.52;4.18;;;;;;;;;;4248057;28;20070;-85
2022/04/30 07:51:34;;;;;;;9.00;4.35;;;;;;;;;;4248629;28;20043;-86
2022/04/30 07:53:37;;;;;;;9.05;4.20;;;;;;;;;;4248832;27;20047;-85
2022/04/30 07:55:40;;;;;;;7.90;4.13;;;;;;;;;;4252080;27;20487;-85
2022/04/30 07:57:41;;;;;;;9.50;4.45;;;;;;;;;;4251905;27;20048;-85
2022/04/30 07:59:44;;;;;;;7.75;4.10;;;;;;;;;;4251917;27;20071;-85
2022/04/30 08:01:45;;;;;;;8.57;4.72;;;;;;;;;;4244880;27;20047;-86
2022/04/30 08:03:46;;;;;;;12.18;5.00;;;;;;;;;;4232017;28;20452;-86
2022/04/30 08:05:48;;;;;;;8.52;5.03;;;10.40;99.90;;;;;;4244254;27;20043;-86
2022/04/30 08:07:49;;;;;;;10.90;5.10;;;10.30;99.90;;;;;;4251645;27;20042;-86
2022/04/30 08:09:53;;;;;;;8.80;4.95;;;10.20;99.90;;;;;;4243904;27;20039;-86
2022/04/30 08:11:54;;;;;;;10.98;4.70;;;10.60;99.90;;;;;;4234162;27;20089;-87
2022/04/30 08:13:54;;;;;;;8.57;4.13;;;10.80;99.90;;;;;;4244610;27;20039;-86
2022/04/30 08:15:55;;;;;;;12.05;4.47;;;10.30;99.90;;;;;;4200614;28;20107;-86
2022/04/30 08:17:56;;;;;;;8.95;4.68;;;10.40;99.90;;;;;;4232169;28;20124;-86
2022/04/30 08:19:56;;;;;;;9.40;4.43;;;10.70;99.90;;;;;;4251007;27;20046;-86
2022/04/30 08:21:57;;;;;;;11.52;4.60;;;10.30;99.90;;;;;;4242926;27;20044;-86
2022/04/30 08:23:59;;;;;;;8.13;4.43;;;10.40;99.90;;;;;;4234706;28;20075;-87
2022/04/30 08:26:01;;;;;;;12.82;4.78;;;10.40;99.90;;;;;;4234505;28;20054;-87
2022/04/30 08:28:03;;;;;;;9.00;4.88;;;10.60;99.90;;;;;;4234612;28;20097;-87
2022/04/30 08:30:05;;;;;;;8.45;4.60;;;;;;;;;;4234282;28;20391;-87
2022/04/30 08:32:07;;;;;;;6.47;4.05;;;;;;;;;;4234274;28;20083;-87
2022/04/30 08:34:08;;;;;;;11.80;5.55;;;;;;;;;;4234457;28;20054;-86
2022/04/30 08:36:09;;;;;;;6.70;4.07;;;;;;;;;;4233713;27;20044;-85
2022/04/30 08:38:11;;;;;;;11.15;3.60;;;10.60;99.90;;;;;;4234283;28;20047;-88
2022/04/30 08:40:12;;;;;;;13.65;3.30;;;11.30;99.90;;;;;;4234164;28;20044;-85
2022/04/30 08:42:14;;;;;;;9.90;3.90;;;11.30;99.90;;;;;;4238478;27;20044;-86
2022/04/30 08:44:17;;;;;;;7.35;3.80;;;11.40;99.90;;;;;;4238723;27;20089;-86
2022/04/30 08:46:20;;;;;;;13.30;4.60;;;11.40;99.90;;;;;;4250349;27;20090;-86
2022/04/30 08:48:20;;;;;;;7.78;3.92;;;11.60;99.90;;;;;;4239891;27;20075;-86
2022/04/30 08:50:21;;;;;;;9.90;4.30;;;11.60;99.90;;;;;;4250300;27;20035;-86
2022/04/30 08:52:22;;;;;;;10.95;4.28;;;11.80;99.90;;;;;;4232424;28;20047;-86
2022/04/30 08:54:24;;;;;;;8.82;4.05;;;12.00;99.90;;;;;;4250175;27;20050;-87
2022/04/30 08:56:25;;;;;;;8.63;3.75;;;11.90;99.90;;;;;;4250736;27;20114;-86
2022/04/30 08:58:26;;;;;;;10.45;4.43;;;12.00;99.90;;;;;;4250492;27;20091;-88
2022/04/30 09:00:27;;;;;;;8.48;4.25;;;11.90;99.90;;;;;;4250449;27;20118;-86
2022/04/30 09:02:37;;;;;;;9.82;4.20;;;12.00;99.90;;;;;;4249432;27;20117;-86
2022/04/30 09:04:45;;;;;;;;;;;12.00;99.90;;;;;;4250639;27;20071;-85
2022/04/30 09:06:53;;;;;;;8.88;4.05;;;11.90;99.90;;;;;;4250301;27;20007;-85
2022/04/30 09:08:54;;;;;;;9.35;4.10;;;11.90;99.90;;;;;;4250402;27;20050;-86
2022/04/30 09:11:06;;;;;;;17.15;6.65;;;11.80;99.90;;;;;;4249939;27;20491;-86
2022/04/30 09:13:17;;;;;;;14.98;6.65;;;11.40;99.90;;;;;;4250558;27;20075;-85
2022/04/30 09:15:19;;;;;;;13.50;6.70;;;11.60;99.90;;;;;;4231663;28;20048;-86
2022/04/30 09:17:22;;;;;;;15.25;8.85;;;11.50;99.90;;;;;;4232005;28;20043;-86
2022/04/30 09:19:22;;;;;;;11.30;7.30;;;11.40;99.90;;;;;;4223434;28;20055;-86
2022/04/30 09:21:23;;;;;;;9.80;5.72;;;11.30;99.90;;;;;;4249779;27;20054;-87
2022/04/30 09:23:30;;;;;;;6.57;4.47;;;11.20;99.90;;;;;;4237734;27;20050;-86
2022/04/30 09:25:31;;;;;;;11.98;4.60;;;11.30;99.90;;;;;;4233783;28;20040;-86
2022/04/30 09:27:32;;;;;;;6.25;3.83;;;11.20;99.90;;;;;;4233381;28;20036;-86
2022/04/30 09:29:34;;;;;;;7.43;4.53;;;11.20;99.90;;;;;;4215621;28;20035;-86
2022/04/30 09:31:39;;;;;;;8.38;4.10;;;11.10;99.90;;;;;;4233541;28;20040;-86
2022/04/30 09:33:49;;;;;;;6.90;4.25;;;11.10;99.90;;;;;;4233615;28;20040;-86
2022/04/30 09:38:09;;;;;;;9.32;4.25;;;11.20;99.90;;;;;;4233100;28;20112;-86
2022/04/30 09:40:13;;;;;;;9.57;4.13;;;11.00;99.90;;;;;;4233384;28;20079;-86
2022/04/30 09:42:14;;;;;;;9.82;3.60;;;11.50;99.90;;;;;;4232984;28;20043;-86
2022/04/30 09:44:16;;;;;;;7.35;3.17;;;11.00;99.90;;;;;;4232817;28;20043;-86
2022/04/30 09:46:17;;;;;;;6.78;3.03;;;11.00;99.90;;;;;;4233435;28;20498;-85
2022/04/30 09:55:16;;;;;;;6.53;3.17;;;10.90;99.90;;;;;;4233067;28;20054;-85
2022/04/30 09:57:20;;;;;;;7.93;3.78;;;10.90;99.90;;;;;;4232984;28;20054;-85
2022/04/30 09:59:22;;;;;;;7.32;4.22;;;11.10;99.90;;;;;;4233400;28;20051;-85
2022/04/30 10:01:24;;;;;;;4.40;3.15;;;11.00;99.90;;;;;;4216485;28;20039;-85
2022/04/30 10:03:28;;;;;;;6.22;3.53;;;11.00;99.90;;;;;;4242993;27;20055;-85
2022/04/30 10:05:35;;;;;;;6.07;3.58;;;11.20;99.90;;;;;;4257770;27;20229;-86
2022/04/30 10:07:36;;;;;;;11.68;3.35;;;11.00;99.90;;;;;;4255212;27;20039;-86
2022/04/30 10:09:46;;;;;;;5.60;3.17;;;11.10;99.90;;;;;;4228525;28;20511;-86
2022/04/30 10:11:56;;;;;;;6.25;3.40;;;10.80;99.90;;;;;;4236706;28;20050;-84
2022/04/30 10:14:02;;;;;;;6.95;3.30;;;11.20;99.90;;;;;;4254779;27;20050;-85
2022/04/30 10:16:11;;;;;;;7.40;3.15;;;11.20;99.90;;;;;;4256113;27;20047;-87
2022/04/30 10:18:13;;;;;;;6.85;3.35;;;11.20;99.90;;;;;;4250717;27;20104;-86
2022/04/30 10:20:35;;;;;;;7.78;3.83;;;11.20;99.90;;;;;;4249569;27;20110;-86
2022/04/30 10:22:54;;;;;;;8.57;3.10;;;11.30;99.90;;;;;;4241678;27;20039;-87
2022/04/30 10:24:58;;;;;;;4.93;2.80;;;11.30;99.90;;;;;;4251030;27;20043;-86
2022/04/30 10:26:59;;;;;;;6.25;3.05;;;11.20;99.90;;;;;;4250047;27;20107;-86
2022/04/30 10:29:11;;;;;;;8.23;3.13;;;11.30;99.90;;;;;;4248954;27;20074;-84
2022/04/30 10:31:13;;;;;;;5.53;3.45;;;11.30;99.90;;;;;;4248791;27;20039;-85
2022/04/30 10:33:14;;;;;;;4.75;2.75;;;11.40;99.90;;;;;;4248903;27;20113;-85
2022/04/30 10:35:15;;;;;;;5.93;2.90;;;11.80;99.90;;;;;;4248768;27;20043;-85
2022/04/30 10:37:27;;;;;;;8.13;3.72;;;11.20;99.90;;;;;;4233571;28;20035;-87
2022/04/30 10:39:29;;;;;;;5.88;2.58;;;11.30;99.90;;;;;;4245357;27;20039;-86
2022/04/30 10:41:54;;;;;;;5.82;3.13;;;11.90;99.90;;;;;;4253733;27;20103;-87
2022/04/30 10:44:04;;;;;;;6.95;3.30;;;11.40;99.70;;;;;;4251637;27;20035;-86
2022/04/30 10:46:34;;;;;;;7.15;2.78;;;11.70;99.90;;;;;;4260424;27;20071;-86
2022/04/30 10:48:36;;;;;;;7.05;3.08;;;11.40;99.90;;;;;;4252199;27;20035;-86
2022/04/30 10:50:41;;;;;;;5.03;3.35;;;11.40;99.80;;;;;;4251813;27;20082;-87
2022/04/30 10:52:45;;;;;;;8.05;3.33;;;11.40;99.80;;;;;;4252522;27;20092;-87
2022/04/30 10:54:50;;;;;;;4.97;3.42;;;11.40;99.80;;;;;;4252277;27;20119;-86
2022/04/30 10:57:04;;;;;;;7.55;3.25;;;11.40;99.90;;;;;;4252125;27;20054;-87
2022/04/30 10:59:05;;;;;;;7.72;3.50;;;11.40;99.90;;;;;;4242391;27;20043;-87
2022/04/30 11:01:25;;;;;;;8.25;3.85;;;;;;;;;;4251092;27;20050;-87
2022/04/30 11:03:30;;;;;;;9.10;3.70;;;;;;;;;;4250820;27;20058;-87
2022/04/30 11:05:32;;;;;;;6.35;3.25;;;;;;;;;;4250385;27;20114;-87
2022/04/30 11:07:34;;;;;;;10.25;3.80;;;;;;;;;;4237147;27;20044;-86
2022/04/30 11:09:47;;;;;;;7.53;3.58;;;11.50;99.90;;;;;;4250068;27;20043;-87
2022/04/30 11:11:50;;;;;;;7.43;3.70;;;11.60;99.90;;;;;;4231807;28;20572;-86
2022/04/30 11:14:03;;;;;;;8.95;3.50;;;11.60;99.80;;;;;;4249956;27;20118;-87
2022/04/30 11:16:13;;;;;;;11.23;4.47;;;11.60;99.80;;;;;;4250378;28;20039;-86
2022/04/30 11:18:20;;;;;;;7.85;3.97;;;11.60;99.60;;;;;;4231310;28;20056;-87
2022/04/30 11:20:27;;;;;;;6.35;3.42;;;11.60;99.50;;;;;;4218661;28;20044;-87
2022/04/30 11:22:27;;;;;;;6.35;3.13;;;11.70;99.50;;;;;;4216900;28;20044;-87
2022/04/30 11:24:30;;;;;;;10.20;3.88;;;11.80;99.40;;;;;;4210917;28;20122;-87
2022/04/30 11:26:39;;;;;;;4.43;3.30;;;11.70;99.60;;;;;;4215917;28;20045;-87
2022/04/30 11:28:40;;;;;;;;;;;11.80;99.50;;;;;;4211569;28;20047;-87
2022/04/30 11:30:42;;;;;;;7.13;2.85;;;;;;;;;;4220079;28;19920;-86
2022/04/30 11:32:48;;;;;;;6.03;3.25;;;;;;;;;;4218686;28;20047;-87